createdAt,value
2018-02-14T00:00:59.655Z,77.9
2018-02-14T00:10:59.445Z,78.6
2018-02-14T00:20:59.346Z,79.2
2018-02-14T00:30:59.146Z,77.0
2018-02-14T00:40:59.041Z,76.0
2018-02-14T00:50:59.856Z,79.9
2018-02-14T01:00:59.597Z,73.1
2018-02-14T01:10:59.382Z,79.1
2018-02-14T01:20:59.329Z,79.7
2018-02-14T01:30:59.125Z,77.3
2018-02-14T01:40:58.843Z,81.0
2018-02-14T01:50:59.879Z,77.9
2018-02-14T02:00:59.703Z,78.7
2018-02-14T02:10:59.518Z,79.5
2018-02-14T02:20:59.466Z,73.9
2018-02-14T02:30:59.237Z,78.2
2018-02-14T02:40:59.045Z,75.5
2018-02-14T02:50:59.747Z,79.6
2018-02-14T03:00:59.465Z,84.6
2018-02-14T03:10:59.252Z,88.5
2018-02-14T03:20:59.137Z,80.9
2018-02-14T03:30:58.946Z,84.1
2018-02-14T03:40:59.756Z,94.4
2018-02-14T03:50:59.475Z,83.9
2018-02-14T04:00:59.582Z,87.1
2018-02-14T04:10:59.383Z,78.0
2018-02-14T04:20:59.302Z,80.7
2018-02-14T04:30:59.101Z,79.0
2018-02-14T04:40:58.786Z,76.9
2018-02-14T04:50:59.586Z,75.8
2018-02-14T05:00:59.370Z,85.1
2018-02-14T05:10:59.147Z,80.1
2018-02-14T05:20:58.954Z,70.8
2018-02-14T05:30:59.330Z,70.1
2018-02-14T05:40:59.082Z,69.8
2018-02-14T05:50:58.864Z,66.3
2018-02-14T06:00:59.700Z,51.7
2018-02-14T06:10:59.431Z,64.9
2018-02-14T06:20:59.254Z,46.4
2018-02-14T06:30:58.963Z,46.9
2018-02-14T06:40:59.780Z,49.8
2018-02-14T06:50:59.496Z,44.7
2018-02-14T07:00:59.217Z,43.9
2018-02-14T07:10:58.998Z,49.5
2018-02-14T07:20:58.871Z,48.8
2018-02-14T07:30:59.496Z,36.3
2018-02-14T07:40:59.184Z,40.1
2018-02-14T07:50:58.895Z,39.5
2018-02-14T08:00:59.698Z,32.1
2018-02-14T08:10:59.424Z,32.6
2018-02-14T08:20:59.449Z,31.3
2018-02-14T08:30:59.280Z,35.8
2018-02-14T08:40:59.083Z,29.2
2018-02-14T08:50:58.740Z,41.2
2018-02-14T09:00:59.545Z,32.2
2018-02-14T09:10:59.295Z,31.5
2018-02-14T09:20:59.220Z,37.8
2018-02-14T09:30:58.952Z,37.8
2018-02-14T09:40:59.690Z,36.8
2018-02-14T09:50:59.525Z,38.6
2018-02-14T10:00:59.340Z,35.1
2018-02-14T10:10:59.155Z,36.9
2018-02-14T10:20:59.099Z,37.8
2018-02-14T10:30:58.927Z,31.5
2018-02-14T10:40:59.756Z,34.8
2018-02-14T10:50:59.501Z,31.1
2018-02-14T11:00:59.152Z,29.4
2018-02-14T11:10:58.951Z,29.2
2018-02-14T11:20:59.832Z,36.3
2018-02-14T11:30:59.532Z,37.1
2018-02-14T11:40:59.250Z,31.1
2018-02-14T11:50:59.033Z,40.2
2018-02-14T12:00:59.813Z,36.2
2018-02-14T12:10:59.591Z,34.9
2018-02-14T12:20:59.483Z,34.6
2018-02-14T12:30:59.234Z,35.2
2018-02-14T12:40:58.951Z,40.8
2018-02-14T12:50:59.747Z,35.3
2018-02-14T13:00:59.543Z,36.7
2018-02-14T13:10:59.362Z,39.3
2018-02-14T13:20:59.177Z,70.7
2018-02-14T13:30:58.955Z,33.3
2018-02-14T13:40:59.746Z,32.8
2018-02-14T13:50:59.490Z,35.9
2018-02-14T14:00:59.331Z,35.4
2018-02-14T14:10:59.217Z,36.5
2018-02-14T14:20:59.056Z,35.9
2018-02-14T14:30:59.839Z,36.5
2018-02-14T14:40:59.656Z,31.1
2018-02-14T14:50:59.444Z,32.4
2018-02-14T15:00:59.228Z,30.3
2018-02-14T15:10:59.039Z,30.7
2018-02-14T15:20:58.958Z,29.2
2018-02-14T15:30:59.685Z,33.6
2018-02-14T15:40:59.422Z,38.2
2018-02-14T15:50:59.147Z,39.7
2018-02-14T16:00:58.870Z,41.0
2018-02-14T16:10:59.515Z,48.2
2018-02-14T16:20:59.405Z,43.0
2018-02-14T16:30:59.109Z,45.7
2018-02-14T16:40:58.836Z,43.4
2018-02-14T16:50:59.629Z,45.6
2018-02-14T17:00:59.354Z,52.7
2018-02-14T17:10:59.400Z,44.2
2018-02-14T17:20:59.469Z,39.7
2018-02-14T17:30:59.192Z,41.1
2018-02-14T17:40:59.003Z,45.0
2018-02-14T17:50:59.725Z,40.8
2018-02-14T18:00:59.410Z,45.5
2018-02-14T18:10:59.167Z,45.6
2018-02-14T18:20:59.055Z,44.3
2018-02-14T18:30:59.787Z,46.0
2018-02-14T18:40:59.581Z,41.2
2018-02-14T18:50:59.322Z,43.1
2018-02-14T19:00:59.114Z,45.5
2018-02-14T19:10:58.918Z,57.7
2018-02-14T19:20:59.820Z,48.0
2018-02-14T19:30:59.634Z,50.4
2018-02-14T19:40:59.617Z,50.2
2018-02-14T19:50:59.523Z,54.2
2018-02-14T20:00:59.452Z,66.0
2018-02-14T20:10:59.315Z,68.5
2018-02-14T20:20:59.750Z,81.5
2018-02-14T20:30:59.925Z,69.4
2018-02-14T20:40:59.791Z,85.1
2018-02-14T20:50:59.655Z,83.6
2018-02-14T21:00:59.526Z,67.9
2018-02-14T21:10:59.476Z,73.6
2018-02-14T21:20:59.605Z,73.2
2018-02-14T21:30:59.563Z,66.5
2018-02-14T21:40:59.263Z,63.0
2018-02-14T21:50:59.023Z,63.1
2018-02-14T22:00:59.845Z,57.0
2018-02-14T22:10:59.641Z,47.3
2018-02-14T22:20:59.484Z,46.7
2018-02-14T22:30:59.231Z,42.0
2018-02-14T22:40:59.049Z,42.5
2018-02-14T22:50:59.860Z,41.4
2018-02-14T23:00:59.621Z,45.8
2018-02-14T23:10:59.410Z,42.9
2018-02-14T23:20:59.287Z,46.9
2018-02-14T23:30:59.050Z,43.4
2018-02-14T23:40:59.861Z,40.9
2018-02-14T23:50:59.629Z,39.3
